Time;durP1;ratioP1;P1;durP2;ratioP2;P2;SDS_P1;SDS_P2;PMS_P1;PMS_P2;Temp;Humidity;BMP_temperature;BMP_pressure;BME280_temperature;BME280_humidity;BME280_pressure;Samples;Min_cycle;Max_cycle;Signal;HPM_P1;HPM_P2
2023/11/13 00:00:14;;;;;;;0.57;0.57;;;6.60;99.90;;;;;;4403042;32;20061;-60
2023/11/13 00:02:40;;;;;;;0.82;0.82;;;6.70;99.90;;;;;;4400718;32;20124;-60
2023/11/13 00:05:06;;;;;;;0.30;0.30;;;6.70;99.90;;;;;;4400402;32;20078;-60
2023/11/13 00:07:32;;;;;;;0.82;0.60;;;6.80;99.90;;;;;;4400367;32;20063;-60
2023/11/13 00:09:58;;;;;;;0.40;0.40;;;6.80;99.90;;;;;;4406444;32;20073;-57
2023/11/13 00:12:23;;;;;;;0.50;0.50;;;6.70;99.90;;;;;;4407615;32;20062;-60
2023/11/13 00:14:49;;;;;;;0.40;0.40;;;6.80;99.90;;;;;;4405565;32;20070;-60
2023/11/13 00:17:15;;;;;;;0.40;0.40;;;6.90;99.90;;;;;;4404677;32;20106;-59
2023/11/13 00:19:43;;;;;;;0.30;0.30;;;6.90;99.90;;;;;;4405734;32;20133;-59
2023/11/13 00:22:08;;;;;;;0.28;0.28;;;6.80;99.90;;;;;;4404474;32;20529;-59
2023/11/13 00:24:34;;;;;;;0.30;0.30;;;6.90;99.90;;;;;;4403402;32;20118;-59
2023/11/13 00:26:59;;;;;;;0.57;0.57;;;6.90;99.90;;;;;;4406093;32;20074;-60
2023/11/13 00:29:25;;;;;;;0.43;0.43;;;7.00;99.90;;;;;;4403971;32;20448;-59
2023/11/13 00:31:51;;;;;;;0.35;0.35;;;6.90;99.90;;;;;;4404677;32;20085;-59
2023/11/13 00:34:16;;;;;;;1.55;0.82;;;6.90;99.90;;;;;;4405961;32;20074;-59
2023/11/13 00:36:42;;;;;;;0.60;0.60;;;6.90;99.90;;;;;;4403920;32;20057;-61
2023/11/13 00:39:10;;;;;;;6.55;1.00;;;6.90;99.90;;;;;;4404858;32;20161;-59
2023/11/13 00:41:40;;;;;;;0.37;0.37;;;6.90;99.90;;;;;;4403541;32;20074;-59
2023/11/13 00:44:06;;;;;;;;;;;6.80;99.90;;;;;;4403574;32;20062;-60
2023/11/13 00:46:32;;;;;;;0.40;0.40;;;6.80;99.90;;;;;;4404901;32;20298;-61
2023/11/13 00:48:57;;;;;;;0.50;0.50;;;6.90;99.90;;;;;;4403673;32;20066;-59
2023/11/13 00:51:23;;;;;;;0.40;0.40;;;6.90;99.90;;;;;;4404447;32;20090;-60
2023/11/13 00:53:48;;;;;;;0.40;0.40;;;6.90;99.90;;;;;;4405746;32;20547;-59
2023/11/13 00:56:14;;;;;;;0.68;0.68;;;6.80;99.90;;;;;;4402694;32;20074;-59
2023/11/13 00:58:40;;;;;;;0.40;0.40;;;6.80;99.90;;;;;;4405822;32;20082;-59
2023/11/13 01:01:07;;;;;;;8.35;0.88;;;6.80;99.90;;;;;;4405991;32;20102;-60
2023/11/13 01:03:33;;;;;;;0.25;0.25;;;6.70;99.90;;;;;;4405802;32;20061;-59
2023/11/13 01:05:59;;;;;;;0.43;0.43;;;6.70;99.90;;;;;;4404171;32;21165;-60
2023/11/13 01:08:25;;;;;;;0.30;0.30;;;6.80;99.90;;;;;;4406117;32;20116;-57
2023/11/13 01:10:50;;;;;;;0.30;0.30;;;6.80;99.90;;;;;;4390383;32;20124;-59
2023/11/13 01:13:16;;;;;;;0.43;0.43;;;6.80;99.90;;;;;;4402798;32;20814;-58
2023/11/13 01:15:42;;;;;;;1.52;1.33;;;6.90;99.90;;;;;;4403081;32;20112;-59
2023/11/13 01:18:08;;;;;;;0.43;0.43;;;6.80;99.90;;;;;;4400996;32;20090;-59
2023/11/13 01:20:33;;;;;;;0.37;0.37;;;6.80;99.90;;;;;;4401712;32;20189;-59
2023/11/13 01:22:59;;;;;;;0.40;0.40;;;6.90;99.90;;;;;;4406398;32;20078;-60
2023/11/13 01:25:24;;;;;;;0.60;0.60;;;6.90;99.90;;;;;;4403039;32;20158;-60
2023/11/13 01:27:50;;;;;;;0.30;0.30;;;7.00;99.90;;;;;;4404706;32;20062;-59
2023/11/13 01:30:15;;;;;;;0.40;0.40;;;7.00;99.90;;;;;;4404605;32;20074;-59
2023/11/13 01:32:41;;;;;;;0.55;0.50;;;7.00;99.90;;;;;;4405743;32;20085;-59
2023/11/13 01:35:06;;;;;;;12.95;1.75;;;6.90;99.90;;;;;;4405016;32;20077;-60
2023/11/13 01:37:32;;;;;;;0.20;0.20;;;7.00;99.90;;;;;;4405128;32;20065;-60
2023/11/13 01:39:57;;;;;;;0.40;0.40;;;7.00;99.90;;;;;;4402565;32;20090;-59
2023/11/13 01:42:23;;;;;;;0.30;0.30;;;7.00;99.90;;;;;;4403110;32;20069;-59
2023/11/13 01:44:50;;;;;;;0.47;0.47;;;7.00;99.90;;;;;;4404213;32;20883;-58
2023/11/13 01:47:15;;;;;;;0.45;0.45;;;6.90;99.90;;;;;;4406228;32;20061;-60
2023/11/13 01:49:43;;;;;;;0.30;0.30;;;6.90;99.90;;;;;;4401056;32;20103;-58
2023/11/13 01:52:10;;;;;;;0.40;0.40;;;6.90;99.90;;;;;;4402944;32;20062;-60
2023/11/13 01:54:36;;;;;;;0.30;0.30;;;7.00;99.90;;;;;;4407431;32;20050;-58
2023/11/13 01:57:05;;;;;;;0.45;0.45;;;7.00;99.90;;;;;;4402904;32;20128;-59
2023/11/13 01:59:33;;;;;;;0.43;0.43;;;7.10;99.90;;;;;;4402702;32;20062;-59
2023/11/13 02:02:02;;;;;;;0.35;0.35;;;7.10;99.90;;;;;;4397837;32;20142;-60
2023/11/13 02:04:27;;;;;;;0.30;0.30;;;7.20;99.90;;;;;;4406575;32;20070;-59
2023/11/13 02:06:53;;;;;;;0.37;0.37;;;7.10;99.90;;;;;;4405610;32;20063;-60
2023/11/13 02:09:20;;;;;;;0.40;0.40;;;7.10;99.90;;;;;;4404096;32;20078;-60
2023/11/13 02:11:46;;;;;;;0.30;0.30;;;7.00;99.90;;;;;;4404331;32;20533;-58
2023/11/13 02:14:12;;;;;;;0.40;0.40;;;7.00;99.90;;;;;;4401866;32;20815;-59
2023/11/13 02:16:38;;;;;;;0.30;0.30;;;7.00;99.90;;;;;;4403814;32;20078;-60
2023/11/13 02:19:03;;;;;;;0.40;0.40;;;7.10;99.90;;;;;;4402896;32;20546;-60
2023/11/13 02:21:29;;;;;;;0.43;0.43;;;7.10;99.90;;;;;;4403341;32;20078;-59
2023/11/13 02:23:55;;;;;;;0.77;0.60;;;7.10;99.90;;;;;;4404278;32;20463;-59
2023/11/13 02:26:23;;;;;;;0.30;0.30;;;7.00;99.90;;;;;;4403687;32;20443;-59
2023/11/13 02:28:49;;;;;;;0.30;0.30;;;7.00;99.90;;;;;;4402169;32;20070;-59
2023/11/13 02:31:14;;;;;;;0.30;0.30;;;6.90;99.90;;;;;;4403927;32;20107;-59
2023/11/13 02:33:40;;;;;;;7.22;1.42;;;6.80;99.90;;;;;;4405137;32;20061;-60
2023/11/13 02:36:06;;;;;;;0.20;0.20;;;6.80;99.90;;;;;;4403147;32;20074;-59
2023/11/13 02:38:31;;;;;;;0.30;0.30;;;6.80;99.90;;;;;;4402878;32;20621;-59
2023/11/13 02:40:58;;;;;;;0.20;0.20;;;6.90;99.90;;;;;;4400828;32;20070;-60
2023/11/13 02:43:23;;;;;;;0.30;0.30;;;6.90;99.90;;;;;;4389917;32;20082;-60
2023/11/13 02:45:48;;;;;;;0.20;0.20;;;6.90;99.90;;;;;;4403066;32;20431;-59
2023/11/13 02:48:14;;;;;;;0.32;0.32;;;6.90;99.90;;;;;;4404312;32;20062;-59
2023/11/13 02:50:40;;;;;;;0.40;0.40;;;6.90;99.90;;;;;;4400840;32;20081;-59
2023/11/13 02:53:05;;;;;;;0.40;0.40;;;6.80;99.90;;;;;;4401466;32;20057;-59
2023/11/13 02:55:31;;;;;;;0.20;0.20;;;6.80;99.90;;;;;;4402493;32;20113;-59
2023/11/13 02:57:56;;;;;;;0.20;0.20;;;6.80;99.90;;;;;;4402204;32;20078;-59
2023/11/13 03:00:23;;;;;;;2.28;1.05;;;6.90;99.90;;;;;;4402673;32;20454;-60
2023/11/13 03:02:48;;;;;;;0.30;0.30;;;6.90;99.90;;;;;;4401318;32;20058;-58
2023/11/13 03:05:16;;;;;;;1.45;0.52;;;7.00;99.90;;;;;;4404236;32;20074;-60
2023/11/13 03:07:43;;;;;;;0.30;0.30;;;6.90;99.90;;;;;;4401178;32;20069;-59
2023/11/13 03:10:09;;;;;;;0.30;0.30;;;6.80;99.90;;;;;;4403212;32;20086;-59
2023/11/13 03:12:39;;;;;;;1.50;0.60;;;6.80;99.90;;;;;;4401438;32;20082;-59
2023/11/13 03:15:05;;;;;;;0.50;0.50;;;6.80;99.90;;;;;;4404506;32;20066;-60
2023/11/13 03:17:31;;;;;;;0.30;0.30;;;6.90;99.90;;;;;;4403060;32;20070;-59
2023/11/13 03:19:56;;;;;;;0.20;0.20;;;6.90;99.90;;;;;;4400306;32;20077;-60
2023/11/13 03:22:22;;;;;;;0.20;0.20;;;6.80;99.90;;;;;;4401200;32;20078;-60
2023/11/13 03:24:47;;;;;;;0.30;0.30;;;6.70;99.90;;;;;;4403164;32;20787;-59
2023/11/13 03:27:13;;;;;;;0.30;0.30;;;6.80;99.90;;;;;;4403773;32;20090;-60
2023/11/13 03:29:39;;;;;;;0.50;0.50;;;6.70;99.90;;;;;;4403363;32;20470;-60
2023/11/13 03:32:05;;;;;;;0.30;0.30;;;6.60;99.90;;;;;;4405105;32;20073;-59
2023/11/13 03:34:31;;;;;;;0.47;0.40;;;6.70;99.90;;;;;;4389856;32;20094;-60
2023/11/13 03:36:56;;;;;;;0.28;0.28;;;6.60;99.90;;;;;;4401510;32;20510;-60
2023/11/13 03:39:21;;;;;;;0.37;0.37;;;6.60;99.90;;;;;;4401553;32;20125;-60
2023/11/13 03:41:47;;;;;;;0.45;0.40;;;6.70;99.90;;;;;;4403900;32;20073;-60
2023/11/13 03:44:12;;;;;;;0.32;0.32;;;6.70;99.90;;;;;;4403558;32;20082;-59
2023/11/13 03:46:38;;;;;;;0.47;0.40;;;6.80;99.90;;;;;;4404575;32;20534;-60
2023/11/13 03:49:04;;;;;;;0.57;0.57;;;6.80;99.90;;;;;;4401587;32;20132;-59
2023/11/13 03:51:29;;;;;;;0.50;0.50;;;6.70;99.90;;;;;;4401376;32;20093;-59
2023/11/13 03:53:55;;;;;;;1.65;0.85;;;6.70;99.90;;;;;;4399427;32;20065;-59
2023/11/13 03:56:22;;;;;;;0.30;0.30;;;6.60;99.90;;;;;;4402812;32;20067;-57
2023/11/13 03:58:48;;;;;;;0.40;0.40;;;6.70;99.90;;;;;;4402893;32;20082;-58
2023/11/13 04:01:15;;;;;;;2.53;0.70;;;6.70;99.90;;;;;;4401155;32;20058;-59
2023/11/13 04:03:41;;;;;;;0.95;0.82;;;6.70;99.90;;;;;;4401863;32;20086;-60
2023/11/13 04:06:06;;;;;;;1.37;1.27;;;6.70;99.90;;;;;;4403618;32;20132;-59
2023/11/13 04:08:32;;;;;;;0.40;0.40;;;6.80;99.90;;;;;;4401584;32;20078;-60
2023/11/13 04:10:58;;;;;;;0.30;0.30;;;6.70;99.90;;;;;;4401660;32;20054;-59
2023/11/13 04:13:24;;;;;;;0.40;0.40;;;6.60;99.90;;;;;;4400744;32;20186;-59
2023/11/13 04:15:50;;;;;;;0.30;0.30;;;6.60;99.90;;;;;;4403648;32;20503;-60
2023/11/13 04:18:15;;;;;;;0.30;0.30;;;6.50;99.90;;;;;;4403653;32;20077;-59
2023/11/13 04:20:41;;;;;;;0.22;0.22;;;6.60;99.90;;;;;;4404529;32;20654;-60
2023/11/13 04:23:07;;;;;;;0.32;0.32;;;6.60;99.90;;;;;;4402246;32;20070;-60
2023/11/13 04:25:33;;;;;;;0.30;0.30;;;6.60;99.90;;;;;;4402930;32;20066;-59
2023/11/13 04:27:58;;;;;;;22.02;0.75;;;6.70;99.90;;;;;;4403140;32;20517;-58
2023/11/13 04:30:24;;;;;;;0.40;0.40;;;6.70;99.90;;;;;;4402352;32;20090;-59
2023/11/13 04:32:51;;;;;;;0.28;0.28;;;6.60;99.90;;;;;;4404042;32;20505;-59
2023/11/13 04:35:16;;;;;;;2.12;0.90;;;6.60;99.90;;;;;;4401176;32;20083;-59
2023/11/13 04:37:42;;;;;;;0.28;0.28;;;6.50;99.90;;;;;;4402769;32;20077;-59
2023/11/13 04:40:08;;;;;;;0.60;0.60;;;6.50;99.90;;;;;;4400530;32;20061;-60
2023/11/13 04:42:34;;;;;;;0.30;0.30;;;6.50;99.90;;;;;;4401119;32;20589;-59
2023/11/13 04:44:59;;;;;;;0.52;0.50;;;6.50;99.90;;;;;;4402821;32;20130;-58
2023/11/13 04:47:25;;;;;;;0.32;0.32;;;6.40;99.90;;;;;;4400046;32;20078;-60
2023/11/13 04:49:50;;;;;;;0.20;0.20;;;6.40;99.90;;;;;;4402405;32;20089;-60
2023/11/13 04:52:15;;;;;;;0.30;0.30;;;6.40;99.90;;;;;;4399466;32;20823;-58
2023/11/13 04:54:41;;;;;;;0.20;0.20;;;6.50;99.90;;;;;;4404963;32;20136;-58
2023/11/13 04:57:06;;;;;;;1.23;1.10;;;6.50;99.90;;;;;;4402724;32;20066;-60
2023/11/13 04:59:32;;;;;;;0.30;0.30;;;6.50;99.90;;;;;;4404158;32;20074;-60
2023/11/13 05:01:57;;;;;;;0.20;0.20;;;6.50;99.90;;;;;;4402620;32;20129;-60
2023/11/13 05:04:26;;;;;;;0.40;0.40;;;6.60;99.90;;;;;;4405222;32;20066;-59
2023/11/13 05:06:51;;;;;;;0.37;0.37;;;6.60;99.90;;;;;;4405980;32;20078;-59
2023/11/13 05:09:18;;;;;;;0.30;0.30;;;6.60;99.90;;;;;;4407512;32;20522;-60
2023/11/13 05:11:44;;;;;;;0.37;0.37;;;6.60;99.90;;;;;;4403888;32;20556;-59
2023/11/13 05:14:09;;;;;;;48.03;4.03;;;6.50;99.90;;;;;;4406573;32;20085;-59
2023/11/13 05:16:35;;;;;;;0.28;0.28;;;6.40;99.90;;;;;;4404532;32;20582;-59
2023/11/13 05:19:03;;;;;;;0.50;0.50;;;6.40;99.90;;;;;;4404128;32;20062;-60
2023/11/13 05:21:29;;;;;;;0.30;0.30;;;6.40;99.90;;;;;;4399847;32;20097;-58
2023/11/13 05:23:55;;;;;;;0.30;0.30;;;6.40;99.90;;;;;;4403302;32;20335;-59
2023/11/13 05:26:21;;;;;;;0.30;0.30;;;6.50;99.90;;;;;;4406412;32;20085;-61
2023/11/13 05:28:46;;;;;;;0.30;0.30;;;6.40;99.90;;;;;;4402069;32;20077;-58
2023/11/13 05:31:12;;;;;;;0.32;0.32;;;6.50;99.90;;;;;;4387178;32;20149;-60
2023/11/13 05:33:37;;;;;;;0.50;0.50;;;6.50;99.90;;;;;;4403473;32;20090;-59
2023/11/13 05:36:03;;;;;;;0.30;0.30;;;6.50;99.90;;;;;;4406521;32;20094;-59
2023/11/13 05:38:28;;;;;;;0.45;0.45;;;6.50;99.90;;;;;;4403112;32;20090;-60
2023/11/13 05:40:54;;;;;;;2.62;1.15;;;6.40;99.90;;;;;;4405126;32;20419;-59
2023/11/13 05:43:20;;;;;;;0.40;0.40;;;6.50;99.90;;;;;;4405749;32;20147;-59
2023/11/13 05:45:46;;;;;;;0.57;0.57;;;6.50;99.90;;;;;;4401153;32;20506;-58
2023/11/13 05:48:12;;;;;;;0.30;0.30;;;6.40;99.90;;;;;;4403131;32;20083;-60
2023/11/13 05:50:37;;;;;;;0.85;0.77;;;6.30;99.90;;;;;;4403145;32;20179;-59
2023/11/13 05:53:03;;;;;;;2.25;1.52;;;6.30;99.90;;;;;;4401564;32;20200;-59
2023/11/13 05:55:29;;;;;;;0.30;0.30;;;6.30;99.90;;;;;;4403943;32;20190;-59
2023/11/13 05:57:54;;;;;;;0.40;0.40;;;6.30;99.90;;;;;;4407663;32;20059;-59
2023/11/13 06:00:20;;;;;;;0.30;0.30;;;6.30;99.90;;;;;;4401771;32;21271;-60
2023/11/13 06:02:46;;;;;;;0.20;0.20;;;6.30;99.90;;;;;;4401262;32;20067;-59
2023/11/13 06:05:13;;;;;;;0.47;0.32;;;6.40;99.90;;;;;;4403930;32;20077;-58
2023/11/13 06:07:38;;;;;;;0.30;0.30;;;6.30;99.90;;;;;;4401069;32;20058;-59
2023/11/13 06:10:07;;;;;;;0.30;0.30;;;6.40;99.90;;;;;;4402433;32;20439;-58
2023/11/13 06:12:33;;;;;;;0.55;0.50;;;6.40;99.90;;;;;;4399296;32;20062;-57
2023/11/13 06:15:00;;;;;;;0.32;0.32;;;6.40;99.90;;;;;;4401828;32;20085;-56
2023/11/13 06:17:26;;;;;;;0.40;0.40;;;6.40;99.90;;;;;;4388282;32;20102;-60
2023/11/13 06:19:53;;;;;;;0.85;0.85;;;6.40;99.90;;;;;;4398501;32;20127;-60
2023/11/13 06:22:19;;;;;;;0.28;0.28;;;6.30;99.90;;;;;;4391155;32;20077;-60
2023/11/13 06:24:44;;;;;;;0.82;0.77;;;6.20;99.90;;;;;;4402488;32;20165;-59
2023/11/13 06:27:10;;;;;;;0.40;0.40;;;6.20;99.90;;;;;;4393549;32;20129;-59
2023/11/13 06:29:35;;;;;;;0.30;0.30;;;6.30;99.90;;;;;;4395972;32;20082;-59
2023/11/13 06:32:01;;;;;;;0.73;0.70;;;6.30;99.90;;;;;;4377322;32;20730;-61
2023/11/13 06:34:28;;;;;;;0.55;0.55;;;6.20;99.90;;;;;;4394153;32;20073;-59
2023/11/13 06:36:55;;;;;;;0.65;0.60;;;6.30;99.90;;;;;;4389671;32;20112;-60
2023/11/13 06:39:20;;;;;;;0.20;0.20;;;6.20;99.90;;;;;;4378377;32;20144;-61
2023/11/13 06:41:48;;;;;;;0.62;0.57;;;6.20;99.90;;;;;;4390204;32;20066;-59
2023/11/13 06:44:14;;;;;;;0.45;0.45;;;6.30;99.90;;;;;;4395779;32;20073;-60
2023/11/13 06:46:40;;;;;;;0.50;0.50;;;6.20;99.90;;;;;;4395385;32;20261;-58
2023/11/13 06:49:06;;;;;;;1.17;1.08;;;6.20;99.90;;;;;;4390284;32;20542;-59
2023/11/13 06:51:32;;;;;;;0.20;0.20;;;6.20;99.90;;;;;;4386286;32;20133;-61
2023/11/13 06:53:57;;;;;;;0.50;0.50;;;6.20;99.90;;;;;;4382999;32;20570;-59
2023/11/13 06:56:24;;;;;;;0.30;0.30;;;6.20;99.90;;;;;;4369762;32;20102;-61
2023/11/13 06:58:49;;;;;;;0.32;0.32;;;6.30;99.90;;;;;;4377517;32;20381;-59
2023/11/13 07:01:15;;;;;;;0.43;0.43;;;6.20;99.90;;;;;;4370066;32;20118;-60
2023/11/13 07:03:41;;;;;;;0.22;0.22;;;6.20;99.90;;;;;;4379398;32;20244;-60
2023/11/13 07:06:08;;;;;;;0.30;0.30;;;6.20;99.90;;;;;;4371445;32;20089;-60
2023/11/13 07:08:33;;;;;;;0.30;0.30;;;6.20;99.90;;;;;;4371499;32;20081;-60
2023/11/13 07:10:59;;;;;;;0.93;0.90;;;6.20;99.90;;;;;;4382451;32;20494;-60
2023/11/13 07:13:25;;;;;;;1.02;0.80;;;6.10;99.90;;;;;;4379798;32;20227;-60
2023/11/13 07:15:51;;;;;;;0.43;0.43;;;6.00;99.90;;;;;;4381442;32;20166;-60
2023/11/13 07:18:16;;;;;;;0.57;0.57;;;5.90;99.90;;;;;;4370085;32;20109;-60
2023/11/13 07:20:42;;;;;;;2.37;0.88;;;5.90;99.90;;;;;;4367940;32;20731;-60
2023/11/13 07:23:09;;;;;;;0.65;0.65;;;5.90;99.90;;;;;;4389350;32;20443;-60
2023/11/13 07:25:35;;;;;;;0.40;0.40;;;5.90;99.90;;;;;;4380025;32;20089;-56
2023/11/13 07:28:00;;;;;;;0.40;0.40;;;5.80;99.90;;;;;;4367550;32;20216;-59
2023/11/13 07:30:27;;;;;;;0.50;0.50;;;5.80;99.90;;;;;;4387082;32;20140;-57
2023/11/13 07:32:53;;;;;;;0.35;0.35;;;5.90;99.90;;;;;;4379621;32;20081;-60
2023/11/13 07:35:19;;;;;;;0.30;0.30;;;5.80;99.90;;;;;;4385149;32;20082;-59
2023/11/13 07:37:44;;;;;;;0.32;0.32;;;5.90;99.90;;;;;;4366792;32;20418;-60
2023/11/13 07:40:13;;;;;;;0.62;0.62;;;6.00;99.90;;;;;;4373487;32;20220;-59
2023/11/13 07:42:40;;;;;;;0.77;0.77;;;6.00;99.90;;;;;;4378789;32;20094;-60
2023/11/13 07:45:07;;;;;;;0.30;0.30;;;6.00;99.90;;;;;;4389534;32;20521;-58
2023/11/13 07:47:33;;;;;;;0.30;0.30;;;6.00;99.90;;;;;;4383633;32;20125;-60
2023/11/13 07:49:58;;;;;;;1.75;0.85;;;6.00;99.90;;;;;;4362115;32;20101;-59
2023/11/13 07:52:26;;;;;;;1.25;0.82;;;6.00;99.90;;;;;;4374604;32;20106;-59
2023/11/13 07:54:53;;;;;;;2.95;0.95;;;5.90;99.90;;;;;;4370011;32;20727;-60
2023/11/13 07:57:19;;;;;;;0.50;0.50;;;5.80;99.90;;;;;;4360394;32;20390;-59
2023/11/13 07:59:46;;;;;;;0.88;0.52;;;5.80;99.90;;;;;;4375993;32;20071;-59
2023/11/13 08:02:12;;;;;;;0.40;0.40;;;5.80;99.90;;;;;;4375600;32;20085;-60
2023/11/13 08:04:39;;;;;;;0.40;0.40;;;5.80;99.90;;;;;;4372231;32;20627;-60
2023/11/13 08:07:05;;;;;;;0.45;0.45;;;5.80;99.90;;;;;;4361895;32;20097;-60
2023/11/13 08:09:33;;;;;;;0.68;0.50;;;5.80;99.90;;;;;;4367962;32;20166;-60
2023/11/13 08:11:58;;;;;;;3.10;1.20;;;5.80;99.90;;;;;;4373526;32;20097;-59
2023/11/13 08:14:24;;;;;;;6.43;2.78;;;5.70;99.90;;;;;;4369442;32;20815;-59
2023/11/13 08:16:50;;;;;;;1.02;0.88;;;5.60;99.90;;;;;;4366114;32;20102;-60
2023/11/13 08:19:16;;;;;;;0.32;0.32;;;5.50;99.90;;;;;;4372603;32;20418;-60
2023/11/13 08:21:43;;;;;;;0.45;0.45;;;5.40;99.90;;;;;;4367998;32;20085;-59
2023/11/13 08:24:10;;;;;;;0.55;0.55;;;5.50;99.90;;;;;;4372021;32;20166;-58
2023/11/13 08:26:35;;;;;;;0.40;0.40;;;5.60;99.90;;;;;;4376022;32;20093;-59
2023/11/13 08:29:01;;;;;;;0.32;0.32;;;5.70;99.90;;;;;;4379466;32;20140;-59
2023/11/13 08:31:27;;;;;;;0.45;0.45;;;5.70;99.90;;;;;;4368167;32;20089;-60
2023/11/13 08:33:54;;;;;;;4.93;1.87;;;5.70;99.90;;;;;;4360588;32;20097;-59
2023/11/13 08:36:22;;;;;;;0.30;0.30;;;5.90;99.90;;;;;;4362683;32;20102;-60
2023/11/13 08:38:49;;;;;;;0.60;0.60;;;6.00;99.90;;;;;;4370402;32;20144;-60
2023/11/13 08:41:14;;;;;;;2.67;1.27;;;6.10;99.90;;;;;;4339251;32;20455;-59
2023/11/13 08:43:40;;;;;;;4.10;0.85;;;6.30;99.90;;;;;;4377815;32;20102;-58
2023/11/13 08:46:05;;;;;;;0.50;0.50;;;6.40;99.90;;;;;;4354767;32;20106;-59
2023/11/13 08:48:31;;;;;;;0.40;0.40;;;6.50;99.90;;;;;;4366872;32;20089;-59
2023/11/13 08:50:59;;;;;;;1.27;0.80;;;6.60;99.90;;;;;;4351322;32;21338;-58
2023/11/13 08:53:27;;;;;;;1.00;0.57;;;6.80;99.90;;;;;;4366044;32;20558;-60
2023/11/13 08:55:53;;;;;;;0.40;0.40;;;7.00;99.90;;;;;;4365659;32;20434;-60
2023/11/13 08:58:18;;;;;;;0.70;0.70;;;7.20;99.90;;;;;;4370035;32;20106;-58
2023/11/13 09:00:44;;;;;;;0.40;0.40;;;7.20;99.90;;;;;;4364222;32;20785;-60
2023/11/13 09:03:11;;;;;;;0.40;0.40;;;7.20;99.90;;;;;;4358901;32;20977;-60
2023/11/13 09:05:37;;;;;;;0.40;0.40;;;7.40;99.90;;;;;;4350446;32;20086;-59
2023/11/13 09:08:03;;;;;;;1.17;0.70;;;7.60;99.90;;;;;;4377658;32;20150;-60
2023/11/13 09:10:29;;;;;;;1.67;0.88;;;7.70;99.90;;;;;;4370508;32;20109;-59
2023/11/13 09:12:58;;;;;;;0.55;0.55;;;7.80;99.90;;;;;;4373976;32;20082;-59
2023/11/13 09:15:25;;;;;;;0.40;0.40;;;7.90;99.90;;;;;;4359581;32;20212;-60
2023/11/13 09:17:54;;;;;;;0.37;0.37;;;7.90;99.90;;;;;;4352257;32;20105;-60
2023/11/13 09:20:21;;;;;;;0.52;0.52;;;8.00;99.90;;;;;;4367857;32;20106;-61
2023/11/13 09:22:47;;;;;;;0.47;0.47;;;7.90;99.90;;;;;;4360884;32;20077;-59
2023/11/13 09:25:14;;;;;;;0.43;0.43;;;8.00;99.90;;;;;;4371473;32;20143;-59
2023/11/13 09:27:42;;;;;;;0.30;0.30;;;7.90;99.90;;;;;;4368348;32;20107;-61
2023/11/13 09:30:10;;;;;;;0.30;0.30;;;8.00;99.90;;;;;;4357981;32;20557;-60
2023/11/13 09:32:36;;;;;;;0.77;0.60;;;7.90;99.90;;;;;;4377070;32;20118;-61
2023/11/13 09:35:03;;;;;;;0.20;0.20;;;8.00;99.90;;;;;;4376853;32;20201;-62
2023/11/13 09:37:28;;;;;;;0.62;0.60;;;8.10;99.90;;;;;;4374798;32;20581;-61
2023/11/13 09:39:54;;;;;;;1.95;0.60;;;8.30;99.90;;;;;;4378096;32;21757;-62
2023/11/13 09:42:19;;;;;;;0.73;0.70;;;8.40;99.90;;;;;;4369323;32;20197;-61
2023/11/13 09:44:48;;;;;;;0.43;0.43;;;8.60;99.90;;;;;;4378005;32;21747;-62
2023/11/13 09:47:16;;;;;;;0.30;0.30;;;8.50;99.90;;;;;;4360756;32;20184;-62
2023/11/13 09:49:45;;;;;;;0.50;0.50;;;8.50;99.90;;;;;;4372936;32;20089;-60
2023/11/13 09:52:12;;;;;;;0.45;0.45;;;8.50;99.90;;;;;;4380981;32;20089;-62
2023/11/13 09:54:39;;;;;;;0.30;0.30;;;8.50;99.90;;;;;;4380679;32;20098;-60
2023/11/13 09:57:09;;;;;;;3.92;0.82;;;8.60;99.90;;;;;;4379807;32;20062;-61
2023/11/13 09:59:36;;;;;;;0.43;0.43;;;8.40;99.90;;;;;;4372895;32;21027;-60
2023/11/13 10:02:07;;;;;;;0.45;0.45;;;8.50;99.90;;;;;;4373336;32;20093;-61
2023/11/13 10:04:33;;;;;;;0.40;0.40;;;8.60;99.90;;;;;;4373571;32;20082;-60
2023/11/13 10:06:59;;;;;;;0.40;0.40;;;8.60;99.90;;;;;;4366515;32;20126;-60
2023/11/13 10:09:26;;;;;;;1.35;0.93;;;8.80;99.90;;;;;;4369010;32;20522;-60
2023/11/13 10:11:52;;;;;;;0.40;0.40;;;8.80;99.90;;;;;;4361581;32;20105;-60
2023/11/13 10:14:18;;;;;;;0.75;0.73;;;8.70;99.90;;;;;;4368064;32;20491;-59
2023/11/13 10:17:01;;;;;;;0.30;0.30;;;8.60;99.90;;;;;;4371645;32;20244;-60
2023/11/13 10:19:27;;;;;;;1.55;0.95;;;8.60;99.90;;;;;;4367025;32;20412;-60
2023/11/13 10:21:54;;;;;;;0.50;0.50;;;8.70;99.90;;;;;;4340080;32;20086;-62
2023/11/13 10:24:22;;;;;;;0.35;0.35;;;8.60;99.90;;;;;;4361435;32;21592;-62
2023/11/13 10:26:50;;;;;;;0.47;0.47;;;8.80;99.90;;;;;;4350949;32;20640;-62
2023/11/13 10:29:22;;;;;;;9.27;1.05;;;8.80;99.90;;;;;;4358539;32;20620;-59
2023/11/13 10:31:52;;;;;;;0.40;0.40;;;8.80;99.90;;;;;;4349658;32;20093;-60
2023/11/13 10:34:20;;;;;;;4.07;0.95;;;8.90;99.90;;;;;;4356739;32;20575;-61
2023/11/13 10:37:05;;;;;;;3.22;0.70;;;8.90;99.90;;;;;;4359005;32;20169;-59
2023/11/13 10:39:48;;;;;;;0.52;0.52;;;9.00;99.90;;;;;;4369522;32;21513;-58
2023/11/13 10:42:22;;;;;;;0.35;0.35;;;9.10;99.90;;;;;;4361343;32;20201;-59
2023/11/13 10:44:56;;;;;;;0.52;0.52;;;9.10;99.90;;;;;;4360585;32;20124;-60
2023/11/13 10:47:23;;;;;;;0.47;0.47;;;8.80;99.90;;;;;;4344397;32;20115;-61
2023/11/13 10:49:52;;;;;;;0.43;0.43;;;8.90;99.90;;;;;;4374859;32;20094;-58
2023/11/13 10:52:18;;;;;;;0.52;0.50;;;9.10;99.90;;;;;;4377519;32;20105;-59
2023/11/13 10:54:48;;;;;;;0.35;0.35;;;8.90;99.90;;;;;;4374533;32;20769;-61
2023/11/13 10:57:15;;;;;;;0.37;0.37;;;9.00;99.90;;;;;;4372737;32;21468;-61
2023/11/13 10:59:40;;;;;;;2.17;0.95;;;9.00;99.90;;;;;;4371773;32;20081;-60
2023/11/13 11:02:21;;;;;;;0.30;0.30;;;9.00;99.90;;;;;;4376818;32;20454;-58
2023/11/13 11:04:50;;;;;;;3.05;1.85;;;9.00;99.90;;;;;;4367528;32;20114;-59
2023/11/13 11:07:15;;;;;;;0.50;0.50;;;9.10;99.90;;;;;;4379053;32;20082;-61
2023/11/13 11:09:44;;;;;;;0.75;0.52;;;9.20;99.90;;;;;;4370101;32;20091;-60
2023/11/13 11:12:10;;;;;;;1.37;0.88;;;9.20;99.90;;;;;;4365480;32;20554;-61
2023/11/13 11:15:05;;;;;;;0.22;0.22;;;9.30;99.90;;;;;;4367536;32;20183;-59
2023/11/13 11:17:34;;;;;;;1.17;0.75;;;9.20;99.90;;;;;;4362449;32;21965;-60
2023/11/13 11:20:08;;;;;;;0.47;0.47;;;9.00;99.90;;;;;;4379742;32;20375;-61
2023/11/13 11:22:49;;;;;;;0.30;0.30;;;8.90;99.90;;;;;;4380812;32;20109;-61
2023/11/13 11:25:34;;;;;;;;;;;9.00;99.90;;;;;;4380738;32;20327;-58
2023/11/13 11:28:02;;;;;;;0.30;0.30;;;9.10;99.90;;;;;;4365170;32;19972;-60
2023/11/13 11:30:32;;;;;;;0.30;0.30;;;9.20;99.90;;;;;;4382228;32;20139;-61
2023/11/13 11:32:59;;;;;;;0.30;0.30;;;9.50;99.90;;;;;;4374392;32;20094;-60
2023/11/13 11:35:30;;;;;;;0.40;0.40;;;9.80;99.90;;;;;;4356058;32;21463;-60
2023/11/13 11:38:16;;;;;;;;;;;10.40;99.90;;;;;;4350934;32;20716;-60
2023/11/13 11:40:44;;;;;;;1.25;1.00;;;10.70;99.90;;;;;;4369979;32;21386;-59
2023/11/13 11:43:14;;;;;;;0.47;0.47;;;11.10;99.90;;;;;;4381662;32;20551;-61
2023/11/13 11:45:51;;;;;;;0.50;0.50;;;11.40;99.90;;;;;;4383650;32;20191;-61
2023/11/13 11:48:18;;;;;;;0.37;0.37;;;11.60;99.90;;;;;;4380873;32;20162;-62
2023/11/13 11:50:45;;;;;;;0.40;0.40;;;11.30;99.90;;;;;;4358314;32;87602;-62
2023/11/13 11:53:20;;;;;;;9.65;0.82;;;11.60;99.90;;;;;;4365544;32;20078;-62
2023/11/13 11:55:46;;;;;;;0.62;0.52;;;12.00;99.90;;;;;;4362976;32;20129;-60
2023/11/13 11:58:14;;;;;;;0.30;0.30;;;12.30;99.90;;;;;;4347559;32;20166;-63
2023/11/13 12:00:39;;;;;;;0.50;0.50;;;12.50;99.90;;;;;;4354487;32;20550;-63
2023/11/13 12:03:05;;;;;;;0.60;0.60;;;12.70;99.90;;;;;;4368971;32;20152;-59
2023/11/13 12:05:31;;;;;;;1.12;1.02;;;12.90;99.90;;;;;;4365901;32;20097;-61
2023/11/13 12:07:56;;;;;;;0.30;0.30;;;13.00;99.90;;;;;;4368337;32;20086;-61
2023/11/13 12:10:22;;;;;;;2.30;1.48;;;12.80;99.90;;;;;;4375161;32;20062;-59
2023/11/13 12:12:50;;;;;;;0.60;0.45;;;13.40;99.90;;;;;;4374036;32;20119;-61
2023/11/13 12:15:16;;;;;;;0.40;0.40;;;13.40;99.90;;;;;;4365344;32;21911;-63
2023/11/13 12:17:43;;;;;;;0.35;0.35;;;13.50;99.90;;;;;;4370540;32;20089;-62
2023/11/13 12:20:10;;;;;;;0.50;0.50;;;13.40;99.90;;;;;;4362823;32;20070;-62
2023/11/13 12:22:39;;;;;;;0.50;0.50;;;13.30;99.90;;;;;;4366015;32;21528;-62
2023/11/13 12:25:07;;;;;;;0.60;0.60;;;13.50;99.90;;;;;;4364429;32;21163;-61
2023/11/13 12:27:36;;;;;;;0.40;0.40;;;13.60;99.90;;;;;;4372689;32;20067;-62
2023/11/13 12:30:06;;;;;;;0.50;0.50;;;13.70;99.90;;;;;;4361523;32;20683;-60
2023/11/13 12:32:33;;;;;;;;;;;13.20;99.90;;;;;;4363724;32;20095;-60
2023/11/13 12:35:00;;;;;;;0.88;0.68;;;12.50;99.90;;;;;;4350719;32;19982;-61
2023/11/13 12:37:27;;;;;;;0.40;0.40;;;12.10;99.90;;;;;;4357962;32;20121;-60
2023/11/13 12:39:54;;;;;;;0.50;0.50;;;12.10;99.90;;;;;;4344380;32;21583;-60
2023/11/13 12:42:23;;;;;;;1.02;0.98;;;12.00;99.90;;;;;;4365418;32;20612;-60
2023/11/13 12:44:52;;;;;;;0.30;0.30;;;11.80;99.90;;;;;;4367766;32;20114;-60
2023/11/13 12:47:19;;;;;;;36.75;0.90;;;11.90;99.90;;;;;;4366297;32;20187;-60
2023/11/13 12:49:46;;;;;;;0.45;0.45;;;12.30;99.90;;;;;;4373728;32;20085;-63
2023/11/13 12:52:16;;;;;;;0.50;0.50;;;12.50;99.90;;;;;;4366441;32;20114;-61
2023/11/13 12:54:43;;;;;;;0.43;0.43;;;12.30;99.90;;;;;;4372548;32;20082;-61